TimeMST,TemperatureF,Dew PointF,Humidity,Sea Level PressureIn,VisibilityMPH,Wind Direction,Wind SpeedMPH,Gust SpeedMPH,PrecipitationIn,Events,Conditions,WindDirDegrees,DateUTC
12:53 AM,25.0,19.9,81,30.15,10.0,South,3.5,-,N/A,,Clear,180,2012-11-16 07:53:00
1:53 AM,21.0,17.1,85,30.14,10.0,Calm,Calm,-,N/A,,Clear,0,2012-11-16 08:53:00
2:53 AM,24.1,19.0,81,30.14,10.0,WSW,4.6,-,N/A,,Clear,240,2012-11-16 09:53:00
3:53 AM,26.1,19.9,78,30.13,10.0,WSW,4.6,-,N/A,,Clear,250,2012-11-16 10:53:00
4:53 AM,21.0,16.0,81,30.14,10.0,Calm,Calm,-,N/A,,Clear,0,2012-11-16 11:53:00
5:53 AM,21.9,17.1,82,30.14,10.0,Calm,Calm,-,N/A,,Clear,0,2012-11-16 12:53:00
6:53 AM,23.0,18.0,81,30.15,10.0,East,3.5,-,N/A,,Clear,80,2012-11-16 13:53:00
7:53 AM,23.0,18.0,81,30.17,10.0,Calm,Calm,-,N/A,,Clear,0,2012-11-16 14:53:00
8:53 AM,21.9,18.0,85,30.18,10.0,Calm,Calm,-,N/A,,Clear,0,2012-11-16 15:53:00
9:53 AM,23.0,18.0,81,30.17,10.0,Calm,Calm,-,N/A,,Clear,0,2012-11-16 16:53:00
10:53 AM,27.0,21.0,78,30.16,10.0,North,4.6,-,N/A,,Clear,360,2012-11-16 17:53:00
11:53 AM,27.0,21.0,78,30.16,8.0,Calm,Calm,-,N/A,,Clear,0,2012-11-16 18:53:00
12:53 PM,32.0,23.0,69,30.12,9.0,Calm,Calm,-,N/A,,Clear,0,2012-11-16 19:53:00
1:53 PM,34.0,24.1,67,30.11,10.0,Calm,Calm,-,N/A,,Mostly Cloudy,0,2012-11-16 20:53:00
2:53 PM,35.1,25.0,67,30.09,10.0,Calm,Calm,-,N/A,,Overcast,0,2012-11-16 21:53:00
3:53 PM,34.0,26.1,73,30.10,10.0,Calm,Calm,-,N/A,,Mostly Cloudy,0,2012-11-16 22:53:00
4:53 PM,35.1,26.1,70,30.12,10.0,SSE,3.5,-,N/A,,Scattered Clouds,160,2012-11-16 23:53:00
5:53 PM,30.9,26.1,82,30.13,9.0,Calm,Calm,-,N/A,,Overcast,0,2012-11-17 00:53:00
6:53 PM,30.9,26.1,82,30.14,9.0,WNW,3.5,-,N/A,,Mostly Cloudy,300,2012-11-17 01:53:00
7:53 PM,30.9,26.1,82,30.14,8.0,Calm,Calm,-,N/A,,Overcast,0,2012-11-17 02:53:00
8:53 PM,32.0,26.1,79,30.15,10.0,Calm,Calm,-,N/A,,Mostly Cloudy,0,2012-11-17 03:53:00
9:53 PM,30.9,26.1,82,30.16,10.0,Calm,Calm,-,N/A,,Overcast,0,2012-11-17 04:53:00
10:53 PM,26.1,23.0,88,30.17,10.0,Calm,Calm,-,N/A,,Clear,0,2012-11-17 05:53:00
11:53 PM,28.0,24.1,85,30.17,10.0,WSW,3.5,-,N/A,,Clear,250,2012-11-17 06:53:00